KAWO/AWO METAR and TAF weather

Enter ICAO airport designator
Station Type Date Time Source
KAWO METAR 2019/10/18 06:56 UTC NOAA

KAWO 180656Z AUTO 16005KT 10SM -RA FEW038 BKN048 OVC070 09/08 A2976 RMK AO2 RAB40 SLP082 T00940083 PNO $


Station Type Date Time Source
KAWO Decoded METAR 2019/10/18 06:56 UTC NOAA

Arlington Municipal, WA, United States (KAWO) 48-10N 122-10W
Oct 18, 2019 - 02:56 AM EDT / 2019.10.18 0656 UTC
Wind: from the SSE (160 degrees) at 6 MPH (5 KT):0
Visibility: 10 mile(s):0
Sky conditions: overcast
Weather: light rain
Temperature: 48.9 F (9.4 C)
Dew Point: 46.9 F (8.3 C)
Relative Humidity: 92%
Pressure (altimeter): 29.76 in. Hg (1007 hPa)
ob: KAWO 180656Z AUTO 16005KT 10SM -RA FEW038 BKN048 OVC070 09/08 A2976 RMK AO2 RAB40 SLP082 T00940083 PNO
cycle: 7

Station Type Date Time Source
KAWO TAF UTC NOAA

Error!

Example: see airport list